This is the latest recevied weather packets stored in our database for station/object N8RJC-13. If no packets are shown the sender has not sent any weather packets the latest 10 day(s).
| Time | Temp. | Humidity | Pressure | Rain* | Wind** | Luminosity | Snow |
|---|---|---|---|---|---|---|---|
| 1777053501 | 27.22° C | 51% | 984.3 hPa | 0 mm | 1.34 m/s, 172° | - | - |
| 1777053441 | 27.22° C | 51% | 984.3 hPa | 0 mm | 1.34 m/s, 172° | - | - |
| 1777053381 | 27.22° C | 51% | 984.3 hPa | 0 mm | 1.34 m/s, 172° | - | - |
| 1777053321 | 26.67° C | 51% | 984.2 hPa | 0 mm | 0.89 m/s, 245° | - | - |
| 1777053261 | 26.67° C | 51% | 984.2 hPa | 0 mm | 0.89 m/s, 245° | - | - |
| 1777053201 | 26.67° C | 51% | 984.2 hPa | 0 mm | 0.89 m/s, 245° | - | - |
| 1777053141 | 26.67° C | 51% | 984.2 hPa | 0 mm | 0.89 m/s, 245° | - | - |
| 1777053081 | 26.67° C | 51% | 984.2 hPa | 0 mm | 0.89 m/s, 245° | - | - |
| 1777053021 | 27.22° C | 50% | 984.3 hPa | 0 mm | 1.34 m/s, 213° | - | - |
| 1777052960 | 27.22° C | 50% | 984.3 hPa | 0 mm | 1.34 m/s, 213° | - | - |
| 1777052901 | 27.22° C | 50% | 984.3 hPa | 0 mm | 1.34 m/s, 213° | - | - |
| 1777052841 | 27.22° C | 50% | 984.3 hPa | 0 mm | 1.34 m/s, 213° | - | - |
| 1777052781 | 27.22° C | 50% | 984.3 hPa | 0 mm | 1.34 m/s, 213° | - | - |
| 1777052721 | 26.67° C | 51% | 984.5 hPa | 0 mm | 0.89 m/s, 236° | - | - |
| 1777052661 | 26.67° C | 51% | 984.5 hPa | 0 mm | 0.89 m/s, 236° | - | - |
| 1777052601 | 26.67° C | 51% | 984.5 hPa | 0 mm | 0.89 m/s, 236° | - | - |
| 1777052541 | 26.67° C | 51% | 984.5 hPa | 0 mm | 0.89 m/s, 236° | - | - |
| 1777052481 | 26.67° C | 51% | 984.5 hPa | 0 mm | 0.89 m/s, 236° | - | - |
| 1777052421 | 27.22° C | 52% | 984.3 hPa | 0 mm | 1.34 m/s, 308° | - | - |
| 1777052361 | 27.22° C | 52% | 984.3 hPa | 0 mm | 1.34 m/s, 308° | - | - |
| 1777052301 | 27.22° C | 52% | 984.3 hPa | 0 mm | 1.34 m/s, 308° | - | - |
| 1777052241 | 27.22° C | 52% | 984.3 hPa | 0 mm | 1.34 m/s, 308° | - | - |
| 1777052181 | 27.22° C | 52% | 984.3 hPa | 0 mm | 1.34 m/s, 308° | - | - |
| 1777052121 | 27.22° C | 52% | 984.6 hPa | 0 mm | 0.89 m/s, 158° | - | - |
| 1777052061 | 27.22° C | 52% | 984.6 hPa | 0 mm | 0.89 m/s, 158° | - | - |
* Rain latest hour (hover to see other rain measurements)
** Current wind speed in m/s (hover to see current wind gust speed)